< < Back
Terminal Aerodrome Forecast


Current Version              Previous Versions:   1  2  3  4  5  6  7  8  9  

Terminal Aerodrome Forecast

501
FTUS42 KJAX 240500
TAFSSI
TAF
KSSI 240521Z 2406/2506 00000KT P6SM SCT250
     FM241400 02006KT P6SM SCT025 SCT250
     FM241700 07008KT P6SM SCT035 BKN200
     FM250200 03002KT P6SM FEW250=

Latest METAR

726
SAUS70 KWBC 241900 RRA
MTRSSI
METAR KSSI 241853Z AUTO 09009KT 10SM CLR 22/10 A3000 RMK AO2 SLP159
T02170100


USA.gov is the U.S. government's official web portal to all federal, state and local government web resources and services.